Time;durP1;ratioP1;P1;durP2;ratioP2;P2;SDS_P1;SDS_P2;PMS_P1;PMS_P2;Temp;Humidity;BMP_temperature;BMP_pressure;BME280_temperature;BME280_humidity;BME280_pressure;Samples;Min_cycle;Max_cycle;Signal;HPM_P1;HPM_P2
2023/08/06 00:00:39;;;;;;;8.27;2.95;;;;;;;21.00;59.28;101286.19;5110750;28;20040;-48
2023/08/06 00:03:05;;;;;;;6.47;3.25;;;;;;;21.05;59.25;101289.75;5115237;28;20024;-49
2023/08/06 00:05:32;;;;;;;8.35;2.85;;;;;;;20.87;60.50;101287.47;5119490;27;20032;-50
2023/08/06 00:07:58;;;;;;;8.68;3.35;;;;;;;20.97;59.90;101279.34;5121531;27;20107;-51
2023/08/06 00:10:24;;;;;;;9.35;3.30;;;;;;;20.50;60.75;101271.22;5119777;27;20081;-51
2023/08/06 00:12:51;;;;;;;8.93;3.42;;;;;;;20.23;61.57;101277.50;5098385;28;20031;-49
2023/08/06 00:15:17;;;;;;;9.50;3.10;;;;;;;20.52;61.83;101278.00;5094200;28;20118;-49
2023/08/06 00:17:43;;;;;;;11.80;3.40;;;;;;;20.21;61.44;101271.50;5094793;28;20020;-50
2023/08/06 00:20:10;;;;;;;7.25;2.78;;;;;;;20.13;62.50;101271.16;5094488;28;20070;-47
2023/08/06 00:22:38;;;;;;;11.02;3.08;;;;;;;20.39;61.90;101269.47;5094384;28;20438;-48
2023/08/06 00:25:05;;;;;;;9.15;3.40;;;;;;;20.34;62.12;101272.97;5094070;28;20024;-47
2023/08/06 00:27:34;;;;;;;6.63;3.00;;;;;;;20.49;61.71;101272.28;5113356;28;20041;-47
2023/08/06 00:30:01;;;;;;;10.05;2.88;;;;;;;20.33;62.64;101265.06;5114596;28;20016;-47
2023/08/06 00:32:27;;;;;;;5.63;3.13;;;;;;;20.37;61.75;101261.56;5097088;28;20028;-48
2023/08/06 00:34:53;;;;;;;8.02;3.10;;;;;;;20.23;62.21;101255.75;5101752;27;20058;-47
2023/08/06 00:37:20;;;;;;;10.32;3.33;;;;;;;20.17;62.73;101262.22;5113028;27;20024;-49
2023/08/06 00:39:46;;;;;;;9.45;3.20;;;;;;;19.84;63.18;101246.19;5107765;27;20046;-51
2023/08/06 00:42:12;;;;;;;7.50;3.25;;;;;;;19.89;63.49;101248.94;5121482;27;20068;-47
2023/08/06 00:44:39;;;;;;;6.75;2.70;;;;;;;19.94;63.69;101246.28;5113528;28;20091;-49
2023/08/06 00:47:07;;;;;;;8.00;3.03;;;;;;;20.00;64.54;101242.53;5112896;28;20034;-48
2023/08/06 00:49:37;;;;;;;15.35;4.13;;;;;;;19.74;64.11;101242.28;5097832;22;20433;-49
2023/08/06 00:52:05;;;;;;;11.13;4.35;;;;;;;19.62;65.16;101241.63;5073375;28;20032;-47
2023/08/06 00:54:32;;;;;;;10.50;3.65;;;;;;;19.44;65.91;101241.97;5073097;28;20033;-49
2023/08/06 00:57:01;;;;;;;9.15;3.38;;;;;;;19.37;66.51;101231.28;5073511;28;20058;-48
2023/08/06 00:59:28;;;;;;;11.45;3.83;;;;;;;19.34;66.87;101222.84;5070544;28;20028;-47
2023/08/06 01:01:54;;;;;;;13.57;3.40;;;;;;;19.33;66.55;101219.31;5071333;28;20376;-48
2023/08/06 01:04:21;;;;;;;11.43;3.08;;;;;;;19.32;66.94;101212.25;5072830;28;20548;-49
2023/08/06 01:07:08;;;;;;;10.85;3.58;;;;;;;19.45;66.92;101216.44;5073336;28;20519;-47
2023/08/06 01:09:45;;;;;;;9.57;3.67;;;;;;;19.48;66.71;101219.44;5073336;28;20037;-51
2023/08/06 01:12:45;;;;;;;10.05;3.70;;;;;;;19.58;66.85;101215.22;5073156;28;20024;-47
2023/08/06 01:15:35;;;;;;;16.13;4.10;;;;;;;19.57;66.39;101208.97;5073056;28;20024;-48
2023/08/06 01:18:02;;;;;;;16.70;4.13;;;;;;;19.53;66.42;101214.06;5072498;28;20032;-49
2023/08/06 01:20:30;;;;;;;10.95;3.65;;;;;;;19.31;66.84;101201.63;5070775;28;20029;-51
2023/08/06 01:22:56;;;;;;;9.18;3.92;;;;;;;19.39;67.67;101207.44;5071652;28;20039;-49
2023/08/06 01:25:34;;;;;;;9.32;3.10;;;;;;;19.26;67.96;101210.53;5071611;28;20028;-49
2023/08/06 01:28:11;;;;;;;14.15;4.30;;;;;;;19.53;67.46;101200.50;5072604;28;20026;-52
2023/08/06 01:30:42;;;;;;;13.05;4.32;;;;;;;19.60;66.18;101197.63;5072114;28;20085;-49
2023/08/06 01:33:19;;;;;;;11.18;3.92;;;;;;;19.41;66.83;101201.75;5072243;28;20027;-49
2023/08/06 01:35:47;;;;;;;10.60;4.18;;;;;;;19.52;66.65;101206.19;5072151;28;20039;-49
2023/08/06 01:38:14;;;;;;;14.35;3.92;;;;;;;19.44;66.52;101212.09;5071653;28;20075;-47
2023/08/06 01:40:40;;;;;;;9.90;4.45;;;;;;;19.39;66.08;101201.19;5071509;28;20503;-48
2023/08/06 01:43:06;;;;;;;8.45;3.67;;;;;;;19.24;67.33;101202.66;5076251;28;20028;-46
2023/08/06 01:45:33;;;;;;;10.13;4.18;;;;;;;19.20;67.66;101198.81;5091970;28;20036;-51
2023/08/06 01:47:59;;;;;;;13.45;4.68;;;;;;;19.19;67.78;101190.91;5092467;28;20036;-49
2023/08/06 01:50:25;;;;;;;15.60;3.80;;;;;;;19.19;68.02;101190.91;5084758;28;20036;-47
2023/08/06 01:52:51;;;;;;;13.07;4.25;;;;;;;19.34;67.64;101187.56;5081064;28;20024;-47
2023/08/06 01:55:18;;;;;;;12.68;3.72;;;;;;;19.49;66.75;101187.72;5092041;28;20472;-46
2023/08/06 01:57:44;;;;;;;9.45;4.22;;;;;;;19.63;66.55;101183.53;5091763;28;20503;-46
2023/08/06 02:00:11;;;;;;;9.77;3.80;;;;;;;19.73;65.59;101183.63;5092292;28;20510;-48
2023/08/06 02:02:38;;;;;;;8.82;3.53;;;;;;;19.96;65.61;101178.91;5085575;28;20067;-45
2023/08/06 02:05:04;;;;;;;8.32;4.00;;;;;;;19.93;65.48;101182.13;5079529;28;20071;-46
2023/08/06 02:07:31;;;;;;;11.45;3.58;;;;;;;20.09;64.81;101183.88;5070023;28;20033;-46
2023/08/06 02:09:57;;;;;;;8.13;3.75;;;;;;;20.19;64.79;101192.13;5078877;28;20047;-49
2023/08/06 02:12:23;;;;;;;14.10;4.50;;;;;;;20.23;64.22;101189.69;5076519;28;20071;-45
2023/08/06 02:14:49;;;;;;;13.77;3.83;;;;;;;20.33;64.22;101188.97;5084409;28;20208;-45
2023/08/06 02:17:16;;;;;;;12.60;3.78;;;;;;;20.45;63.42;101192.28;5092234;28;20098;-46
2023/08/06 02:19:43;;;;;;;9.50;3.60;;;;;;;20.60;62.74;101192.41;5072362;28;20036;-49
2023/08/06 02:22:09;;;;;;;11.50;3.75;;;;;;;20.72;62.05;101190.28;5071947;28;20031;-45
2023/08/06 02:24:35;;;;;;;10.88;4.22;;;;;;;21.02;61.30;101191.47;5069339;28;20033;-45
2023/08/06 02:27:01;;;;;;;8.07;3.63;;;;;;;21.33;60.40;101198.69;5070645;28;20166;-48
2023/08/06 02:29:28;;;;;;;10.05;4.07;;;;;;;21.35;60.24;101192.97;5080503;28;20029;-45
2023/08/06 02:31:54;;;;;;;8.90;3.95;;;;;;;21.47;59.79;101200.88;5071919;28;20481;-47
2023/08/06 02:34:20;;;;;;;11.10;4.35;;;;;;;21.56;59.59;101204.72;5088470;28;20050;-46
2023/08/06 02:36:46;;;;;;;8.77;3.78;;;;;;;21.67;58.87;101203.63;5076678;28;20033;-48
2023/08/06 02:39:13;;;;;;;8.30;3.63;;;;;;;21.54;58.79;101202.28;5073221;28;20473;-47
2023/08/06 02:41:39;;;;;;;15.93;4.55;;;;;;;20.87;61.08;101202.31;5088937;28;20023;-46
2023/08/06 02:44:06;;;;;;;12.30;4.20;;;;;;;20.67;61.89;101205.75;5071574;28;20029;-49
2023/08/06 02:46:32;;;;;;;12.43;4.68;;;;;;;20.61;62.13;101213.06;5071679;28;20043;-49
2023/08/06 02:48:58;;;;;;;13.15;4.65;;;;;;;20.49;62.24;101204.31;5071680;28;20048;-47
2023/08/06 02:51:25;;;;;;;12.13;4.68;;;;;;;20.04;64.08;101205.59;5072806;28;20040;-46
2023/08/06 02:53:51;;;;;;;12.82;4.88;;;;;;;19.71;65.13;101206.66;5079147;28;20500;-48
2023/08/06 02:56:18;;;;;;;21.17;5.05;;;;;;;19.37;66.54;101216.88;5071222;28;20115;-45
2023/08/06 02:58:44;;;;;;;11.15;4.43;;;;;;;19.18;67.61;101221.84;5071770;28;20039;-47
2023/08/06 03:01:11;;;;;;;16.08;5.57;;;;;;;19.16;67.32;101219.41;5071186;28;20108;-49
2023/08/06 03:03:37;;;;;;;17.50;5.60;;;;;;;18.93;68.58;101235.91;5070936;28;20106;-48
2023/08/06 03:06:03;;;;;;;13.10;4.97;;;;;;;18.61;69.42;101233.03;5071097;28;20055;-47
2023/08/06 03:08:30;;;;;;;15.93;5.40;;;;;;;18.23;71.29;101231.94;5071297;28;20021;-47
2023/08/06 03:10:56;;;;;;;13.82;5.35;;;;;;;18.33;70.96;101240.22;5070884;28;20523;-46
2023/08/06 03:13:22;;;;;;;10.75;4.60;;;;;;;18.26;71.90;101241.44;5070694;28;20113;-45
2023/08/06 03:15:55;;;;;;;17.80;5.40;;;;;;;18.04;72.50;101233.22;5073117;28;20024;-45
2023/08/06 03:18:22;;;;;;;21.38;6.22;;;;;;;17.74;74.15;101228.13;5087631;28;20032;-46
2023/08/06 03:20:49;;;;;;;16.38;5.45;;;;;;;17.62;75.17;101247.94;5091340;28;20476;-48
2023/08/06 03:23:15;;;;;;;14.57;5.82;;;;;;;17.67;74.54;101245.31;5090921;28;20031;-46
2023/08/06 03:25:42;;;;;;;18.80;6.18;;;;;;;17.61;75.55;101246.28;5094286;28;20421;-46
2023/08/06 03:28:08;;;;;;;21.30;6.47;;;;;;;17.42;76.20;101239.41;5091455;28;20104;-48
2023/08/06 03:30:35;;;;;;;19.58;5.88;;;;;;;17.40;76.04;101247.78;5074807;28;20115;-50
2023/08/06 03:33:01;;;;;;;18.50;5.85;;;;;;;17.46;75.83;101248.72;5075053;28;20024;-46
2023/08/06 03:35:27;;;;;;;21.23;6.32;;;;;;;17.31;76.34;101237.56;5084737;28;20036;-46
2023/08/06 03:37:54;;;;;;;15.30;6.18;;;;;;;17.26;76.71;101237.47;5094479;28;20652;-49
2023/08/06 03:40:20;;;;;;;19.70;6.07;;;;;;;17.03;78.18;101239.19;5094804;28;20469;-50
2023/08/06 03:42:46;;;;;;;16.67;6.22;;;;;;;17.06;77.82;101252.25;5087565;28;20499;-47
2023/08/06 03:45:13;;;;;;;20.70;6.45;;;;;;;16.88;78.94;101253.22;5074139;28;20039;-46
2023/08/06 03:47:39;;;;;;;18.75;5.90;;;;;;;16.81;79.40;101249.00;5093084;28;20073;-45
2023/08/06 03:50:05;;;;;;;22.13;6.78;;;;;;;16.75;79.46;101247.25;5087464;28;20532;-49
2023/08/06 03:52:32;;;;;;;21.13;6.25;;;;;;;16.82;79.07;101248.78;5081358;28;20035;-45
2023/08/06 03:54:58;;;;;;;22.17;6.22;;;;;;;16.90;78.87;101255.69;5094355;28;20028;-46
2023/08/06 03:57:24;;;;;;;19.95;6.57;;;;;;;16.88;78.75;101257.81;5081561;28;20029;-48
2023/08/06 03:59:50;;;;;;;22.58;6.43;;;;;;;16.91;79.15;101257.31;5074299;28;20138;-45
2023/08/06 04:02:17;;;;;;;23.27;6.53;;;;;;;16.94;78.80;101262.28;5074366;28;20020;-47
2023/08/06 04:04:43;;;;;;;16.95;6.00;;;;;;;16.89;79.00;101265.69;5081303;28;20028;-49
2023/08/06 04:07:09;;;;;;;16.15;5.53;;;;;;;16.91;79.43;101268.16;5093545;28;20511;-49
2023/08/06 04:10:01;;;;;;;13.82;5.47;;;;;;;16.99;79.30;101267.78;5094379;28;20035;-46
2023/08/06 04:12:28;;;;;;;20.50;6.65;;;;;;;16.87;79.92;101267.78;5094272;28;20028;-45
2023/08/06 04:14:55;;;;;;;15.80;6.00;;;;;;;16.85;80.27;101272.63;5094123;28;20023;-47
2023/08/06 04:17:21;;;;;;;19.80;6.28;;;;;;;16.99;79.78;101281.31;5094129;28;20020;-46
2023/08/06 04:19:52;;;;;;;20.35;6.50;;;;;;;17.04;80.01;101281.41;5094100;28;20027;-49
2023/08/06 04:22:19;;;;;;;22.35;6.38;;;;;;;16.91;80.82;101278.13;5094135;28;20024;-49
2023/08/06 04:24:46;;;;;;;22.42;5.93;;;;;;;16.84;82.13;101281.78;5092868;28;20089;-45
2023/08/06 04:27:13;;;;;;;19.67;6.65;;;;;;;16.81;82.30;101284.13;5094051;28;20103;-45
2023/08/06 04:29:40;;;;;;;20.05;6.47;;;;;;;16.80;82.99;101277.09;5093955;28;20029;-45
2023/08/06 04:32:08;;;;;;;24.30;7.03;;;;;;;16.81;83.00;101284.13;5093761;28;20108;-47
2023/08/06 04:34:35;;;;;;;17.95;7.20;;;;;;;16.89;82.69;101300.84;5093801;28;20123;-45
2023/08/06 04:37:03;;;;;;;17.67;6.70;;;;;;;16.90;83.17;101304.38;5092721;28;20038;-48
2023/08/06 04:39:30;;;;;;;21.40;6.60;;;;;;;16.92;83.17;101304.94;5093462;28;20465;-46
2023/08/06 04:41:59;;;;;;;19.23;6.32;;;;;;;16.96;82.93;101305.28;5092489;28;20103;-48
2023/08/06 04:44:26;;;;;;;19.90;7.07;;;;;;;16.99;83.11;101297.53;5074315;28;20113;-47
2023/08/06 04:46:53;;;;;;;20.30;6.60;;;;;;;16.86;84.08;101297.78;5087285;28;20362;-45
2023/08/06 04:49:21;;;;;;;18.75;6.57;;;;;;;16.94;83.76;101300.13;5093265;28;20036;-46
2023/08/06 04:51:47;;;;;;;14.13;5.93;;;;;;;17.01;83.14;101298.13;5092866;28;20028;-46
2023/08/06 04:54:14;;;;;;;17.60;6.18;;;;;;;16.88;84.10;101306.50;5093159;28;20028;-45
2023/08/06 04:56:40;;;;;;;18.58;6.10;;;;;;;16.95;83.07;101309.06;5093496;28;20107;-49
2023/08/06 04:59:06;;;;;;;19.00;7.05;;;;;;;16.93;82.97;101311.16;5093375;28;20020;-47
2023/08/06 05:01:33;;;;;;;21.85;6.57;;;;;;;16.95;82.62;101296.38;5093352;28;20429;-48
2023/08/06 05:03:59;;;;;;;21.55;7.20;;;;;;;16.80;82.49;101302.25;5091562;28;20445;-48
2023/08/06 05:06:25;;;;;;;18.13;6.22;;;;;;;16.75;82.30;101302.13;5093064;28;20423;-46
2023/08/06 05:08:51;;;;;;;19.63;6.60;;;;;;;16.67;82.85;101310.56;5093252;28;20472;-46
2023/08/06 05:11:18;;;;;;;18.88;6.80;;;;;;;16.73;82.10;101308.84;5093404;28;20043;-48
2023/08/06 05:13:44;;;;;;;21.05;7.47;;;;;;;16.67;82.35;101301.66;5092851;28;20065;-45
2023/08/06 05:16:10;;;;;;;13.57;5.80;;;;;;;16.82;81.41;101304.69;5093060;28;20830;-46
2023/08/06 05:18:37;;;;;;;17.42;5.82;;;;;;;16.83;81.49;101303.66;5092806;28;20120;-49
2023/08/06 05:21:03;;;;;;;21.85;6.80;;;;;;;16.57;82.10;101297.63;5092973;28;20039;-47
2023/08/06 05:23:30;;;;;;;19.30;6.22;;;;;;;16.58;82.54;101291.16;5091491;28;20024;-50
2023/08/06 05:25:56;;;;;;;20.10;5.88;;;;;;;16.70;82.69;101293.88;5092654;28;20388;-49
2023/08/06 05:28:22;;;;;;;18.85;5.63;;;;;;;16.61;83.13;101298.81;5092673;28;20455;-49
2023/08/06 05:30:48;;;;;;;18.50;6.78;;;;;;;16.69;83.45;101296.81;5093053;28;20024;-49
2023/08/06 05:33:15;;;;;;;15.73;6.15;;;;;;;16.63;84.03;101294.00;5092627;28;20549;-49
2023/08/06 05:35:42;;;;;;;19.40;6.20;;;;;;;16.67;84.07;101299.75;5086132;28;20025;-46
2023/08/06 05:38:08;;;;;;;19.48;6.63;;;;;;;16.56;85.25;101304.09;5087476;28;20464;-47
2023/08/06 05:40:35;;;;;;;20.55;6.50;;;;;;;16.64;85.42;101301.03;5090666;28;20383;-47
2023/08/06 05:43:01;;;;;;;20.20;6.57;;;;;;;16.58;86.29;101301.16;5072060;28;20028;-49
2023/08/06 05:45:27;;;;;;;21.27;7.47;;;;;;;16.71;85.21;101300.13;5074349;28;20047;-49
2023/08/06 05:47:57;;;;;;;20.77;6.63;;;;;;;16.81;85.14;101297.66;5092638;28;20020;-49
2023/08/06 05:50:24;;;;;;;16.65;5.90;;;;;;;16.78;84.38;101290.84;5074236;28;20047;-46
2023/08/06 05:52:50;;;;;;;17.35;6.55;;;;;;;16.79;84.01;101302.50;5074183;28;20020;-47
2023/08/06 05:55:16;;;;;;;19.85;6.45;;;;;;;16.75;83.86;101301.31;5092089;28;20020;-46
2023/08/06 05:57:43;;;;;;;17.33;6.75;;;;;;;16.73;83.44;101292.63;5092379;28;20025;-43
2023/08/06 06:00:09;;;;;;;27.60;6.85;;;;;;;16.69;83.83;101307.63;5091901;28;20034;-44
2023/08/06 06:02:36;;;;;;;20.60;5.88;;;;;;;16.82;82.48;101307.41;5091830;28;20036;-45
2023/08/06 06:05:02;;;;;;;15.65;5.72;;;;;;;16.77;82.60;101301.91;5091742;28;20476;-43
2023/08/06 06:07:28;;;;;;;17.90;6.20;;;;;;;16.73;83.07;101304.25;5091508;28;20043;-46
2023/08/06 06:09:54;;;;;;;20.13;7.00;;;;;;;16.81;82.33;101311.19;5079180;28;20020;-45
2023/08/06 06:12:22;;;;;;;17.90;6.03;;;;;;;16.83;81.88;101311.78;5071513;28;20028;-47
2023/08/06 06:14:48;;;;;;;20.15;6.07;;;;;;;16.86;81.16;101319.41;5071361;28;20020;-44
2023/08/06 06:17:16;;;;;;;16.25;6.60;;;;;;;16.80;80.57;101314.94;5082394;28;20407;-43
2023/08/06 06:19:43;;;;;;;17.85;5.90;;;;;;;16.86;80.46;101317.50;5092048;28;20028;-47
2023/08/06 06:22:09;;;;;;;21.40;6.93;;;;;;;16.86;80.96;101314.00;5091969;28;20027;-49
2023/08/06 06:24:35;;;;;;;22.73;6.43;;;;;;;16.67;82.46;101312.44;5090859;28;20404;-46
2023/08/06 06:27:01;;;;;;;23.08;6.13;;;;;;;16.60;83.14;101310.69;5091861;28;20034;-45
2023/08/06 06:29:28;;;;;;;16.48;6.50;;;;;;;16.57;83.34;101308.44;5091855;28;20369;-46
2023/08/06 06:31:54;;;;;;;19.38;6.65;;;;;;;16.54;82.72;101316.19;5091930;28;20048;-46
2023/08/06 06:34:20;;;;;;;22.83;7.07;;;;;;;16.44;83.09;101310.56;5091267;28;20580;-46
2023/08/06 06:36:46;;;;;;;16.88;5.90;;;;;;;16.35;83.69;101301.97;5090208;28;20046;-46
2023/08/06 06:39:13;;;;;;;18.90;6.47;;;;;;;16.37;83.10;101303.38;5091734;28;20032;-49
2023/08/06 06:41:39;;;;;;;23.23;7.53;;;;;;;16.37;83.72;101318.75;5091930;28;20028;-48
2023/08/06 06:44:06;;;;;;;19.30;6.30;;;;;;;16.33;84.33;101325.69;5091669;28;20421;-50
2023/08/06 06:46:32;;;;;;;21.75;6.80;;;;;;;16.26;84.72;101324.97;5102638;28;20467;-50
2023/08/06 06:48:58;;;;;;;17.02;6.72;;;;;;;16.30;84.79;101326.16;5111907;28;20448;-49
2023/08/06 06:51:25;;;;;;;22.50;6.63;;;;;;;16.23;85.12;101325.44;5112179;28;20107;-48
2023/08/06 06:53:51;;;;;;;20.63;6.75;;;;;;;16.35;84.75;101324.41;5111722;28;20414;-46
2023/08/06 06:56:17;;;;;;;22.90;6.90;;;;;;;16.21;86.15;101322.97;5106704;28;20115;-46
2023/08/06 06:58:43;;;;;;;34.90;7.00;;;;;;;16.16;86.71;101320.16;5091577;28;20024;-49
2023/08/06 07:01:11;;;;;;;20.45;6.57;;;;;;;16.15;87.05;101323.06;5095611;28;20020;-48
2023/08/06 07:03:38;;;;;;;23.42;9.05;;;;;;;16.03;88.07;101328.44;5095487;28;20028;-47
2023/08/06 07:06:05;;;;;;;19.92;8.27;;;;;;;16.02;88.22;101324.91;5095503;28;20026;-49
2023/08/06 07:08:31;;;;;;;25.40;7.72;;;;;;;15.94;88.83;101325.25;5095458;28;20117;-46
2023/08/06 07:11:05;;;;;;;20.45;6.85;;;;;;;16.02;88.48;101327.59;5095394;28;20464;-48
2023/08/06 07:13:32;;;;;;;18.60;6.45;;;;;;;16.10;87.72;101321.88;5094668;28;20024;-47
2023/08/06 07:15:59;;;;;;;25.77;7.40;;;;;;;16.19;87.20;101319.66;5077299;28;20039;-49
2023/08/06 07:18:25;;;;;;;23.20;6.90;;;;;;;16.06;87.97;101320.69;5075079;28;20099;-47
2023/08/06 07:20:53;;;;;;;21.35;7.28;;;;;;;16.13;87.63;101322.47;5075062;28;20035;-47
2023/08/06 07:23:21;;;;;;;21.00;6.53;;;;;;;16.10;87.66;101315.63;5079517;28;20154;-46
2023/08/06 07:25:48;;;;;;;22.13;7.30;;;;;;;16.01;87.93;101320.56;5094290;28;20111;-48
2023/08/06 07:28:15;;;;;;;22.65;7.13;;;;;;;15.92;88.43;101326.50;5095207;28;20020;-45
2023/08/06 07:30:43;;;;;;;28.17;7.22;;;;;;;15.85;88.66;101326.59;5094375;28;20093;-47
2023/08/06 07:33:09;;;;;;;17.80;6.53;;;;;;;15.78;88.65;101325.88;5094815;28;20058;-47
2023/08/06 07:35:36;;;;;;;22.63;6.95;;;;;;;15.91;87.88;101328.38;5094787;28;20266;-46
2023/08/06 07:38:03;;;;;;;23.08;7.68;;;;;;;15.72;88.56;101340.28;5095134;28;20024;-48
2023/08/06 07:40:29;;;;;;;21.60;6.75;;;;;;;15.75;88.11;101339.81;5088041;28;20028;-48
2023/08/06 07:42:55;;;;;;;24.95;7.25;;;;;;;15.62;88.82;101345.38;5074318;28;20028;-49
2023/08/06 07:45:22;;;;;;;22.80;7.28;;;;;;;15.64;88.43;101337.88;5075866;28;20540;-48
2023/08/06 07:47:48;;;;;;;23.13;7.10;;;;;;;15.61;88.94;101338.34;5090563;28;20115;-47
2023/08/06 07:50:14;;;;;;;23.00;6.38;;;;;;;15.73;87.82;101336.53;5074542;28;20051;-47
2023/08/06 07:52:40;;;;;;;19.30;6.10;;;;;;;15.87;86.86;101339.88;5074033;28;20472;-49
2023/08/06 07:55:07;;;;;;;20.85;7.28;;;;;;;15.68;87.55;101336.41;5074278;28;20349;-49
2023/08/06 07:57:34;;;;;;;23.55;6.72;;;;;;;15.75;87.39;101329.84;5078724;28;20024;-47
2023/08/06 08:00:04;;;;;;;24.10;7.15;;;;;;;15.72;87.32;101335.72;5070962;28;20021;-47
2023/08/06 08:02:30;;;;;;;22.58;6.82;;;;;;;15.67;87.46;101332.06;5074036;28;20381;-47
2023/08/06 08:04:56;;;;;;;24.55;7.78;;;;;;;15.65;87.33;101328.75;5079325;28;20475;-47
2023/08/06 08:07:22;;;;;;;19.00;7.03;;;;;;;15.72;87.17;101324.09;5094183;28;20031;-47
2023/08/06 08:09:49;;;;;;;23.10;6.68;;;;;;;15.75;87.34;101321.75;5094341;28;20488;-45
2023/08/06 08:12:15;;;;;;;15.45;6.00;;;;;;;15.61;87.87;101316.75;5092935;28;20032;-45
2023/08/06 08:14:41;;;;;;;21.98;7.25;;;;;;;15.58;88.38;101307.22;5092456;28;20024;-47
2023/08/06 08:17:08;;;;;;;25.65;7.28;;;;;;;15.30;90.35;101313.16;5117274;23;20384;-45
2023/08/06 08:19:34;;;;;;;25.08;7.40;;;;;;;15.43;89.54;101307.59;5114547;28;20034;-45
2023/08/06 08:22:00;;;;;;;26.23;7.35;;;;;;;15.44;89.41;101301.19;5113809;28;20073;-47
2023/08/06 08:24:27;;;;;;;19.75;6.68;;;;;;;15.55;89.05;101303.13;5114240;28;20124;-50
2023/08/06 08:26:53;;;;;;;23.15;6.78;;;;;;;15.61;88.64;101295.97;5114060;28;20080;-48
2023/08/06 08:29:21;;;;;;;22.77;7.05;;;;;;;15.61;88.79;101295.16;5114460;28;20080;-47
2023/08/06 08:31:49;;;;;;;23.58;6.75;;;;;;;15.61;88.66;101305.94;5114164;28;20129;-47
2023/08/06 08:34:18;;;;;;;22.70;6.68;;;;;;;15.48;89.02;101296.97;5113911;28;20028;-50
2023/08/06 08:36:47;;;;;;;19.92;6.93;;;;;;;15.44;89.74;101287.69;5110187;28;20031;-46
2023/08/06 08:39:14;;;;;;;25.77;7.47;;;;;;;15.40;89.97;101283.78;5113897;28;20027;-49
2023/08/06 08:41:40;;;;;;;24.85;7.97;;;;;;;15.46;90.13;101288.28;5113923;28;20023;-47
2023/08/06 08:44:10;;;;;;;28.52;7.45;;;;;;;15.51;89.87;101285.72;5113661;28;20031;-46
2023/08/06 08:46:40;;;;;;;24.70;7.20;;;;;;;15.50;90.54;101289.47;5114038;28;20039;-46
2023/08/06 08:49:06;;;;;;;30.23;8.02;;;;;;;15.32;91.79;101284.09;5113971;28;20436;-47
2023/08/06 08:51:35;;;;;;;28.42;6.90;;;;;;;15.37;91.80;101278.84;5114008;28;20035;-50
2023/08/06 08:54:04;;;;;;;22.95;7.15;;;;;;;15.45;91.19;101289.34;5113892;28;20047;-50
2023/08/06 08:56:31;;;;;;;27.20;7.72;;;;;;;15.50;90.67;101289.47;5113347;28;20031;-47
2023/08/06 08:58:57;;;;;;;23.75;6.80;;;;;;;15.33;92.11;101288.47;5113817;28;20054;-51
2023/08/06 09:01:24;;;;;;;21.08;6.95;;;;;;;15.57;91.16;101265.09;5113876;28;20062;-46
2023/08/06 09:03:53;;;;;;;27.05;7.43;;;;;;;15.36;92.54;101274.50;5113370;28;20830;-49
2023/08/06 09:06:21;;;;;;;29.38;8.43;;;;;;;15.42;92.21;101281.69;5110500;28;20483;-49
2023/08/06 09:09:02;;;;;;;17.20;7.25;;;;;;;15.40;92.04;101296.47;5113520;28;20065;-46
2023/08/06 09:11:31;;;;;;;23.35;7.13;;;;;;;15.32;92.49;101298.41;5110223;28;20453;-47
2023/08/06 09:13:57;;;;;;;25.67;7.35;;;;;;;15.39;91.73;101298.34;5107787;28;20149;-49
2023/08/06 09:16:24;;;;;;;23.40;7.32;;;;;;;15.46;91.19;101292.84;5113056;28;20416;-47
2023/08/06 09:18:50;;;;;;;21.20;7.55;;;;;;;15.55;90.41;101291.50;5113884;28;20475;-47
2023/08/06 09:21:16;;;;;;;24.38;7.90;;;;;;;15.28;91.64;101286.44;5113857;28;20532;-49
2023/08/06 09:23:43;;;;;;;24.00;7.35;;;;;;;15.36;91.12;101287.97;5112851;28;20023;-49
2023/08/06 09:26:13;;;;;;;25.52;7.43;;;;;;;15.25;91.56;101278.78;5113626;28;20417;-45
2023/08/06 09:28:42;;;;;;;28.52;8.18;;;;;;;15.05;92.09;101281.72;5113543;28;20036;-47
2023/08/06 09:31:10;;;;;;;29.02;8.30;;;;;;;15.05;92.22;101284.44;5113406;28;20025;-47
2023/08/06 09:33:39;;;;;;;29.42;8.68;;;;;;;15.05;91.97;101284.44;5112745;28;20032;-47
2023/08/06 09:36:12;;;;;;;28.75;8.55;;;;;;;15.17;91.30;101279.09;5113369;28;20107;-50
2023/08/06 09:38:42;;;;;;;33.35;8.43;;;;;;;15.17;91.18;101294.47;5113040;28;20038;-47
2023/08/06 09:41:08;;;;;;;26.75;8.07;;;;;;;15.04;92.01;101290.84;5112928;28;20035;-46
2023/08/06 09:43:42;;;;;;;26.05;8.95;;;;;;;15.09;91.99;101292.03;5112960;28;20106;-45
2023/08/06 09:46:16;;;;;;;27.38;8.20;;;;;;;15.03;92.34;101297.28;5099288;28;20051;-45
2023/08/06 09:48:46;;;;;;;30.70;8.93;;;;;;;14.88;93.44;101302.25;5101185;28;20401;-46
2023/08/06 09:51:14;;;;;;;21.98;8.00;;;;;;;14.95;93.09;101296.78;5111510;27;20073;-45
2023/08/06 09:53:42;;;;;;;23.65;8.05;;;;;;;14.97;93.11;101294.66;5111033;28;20027;-50
2023/08/06 09:56:09;;;;;;;25.10;8.02;;;;;;;14.87;93.81;101297.88;5097399;28;20028;-47
2023/08/06 09:58:38;;;;;;;20.55;7.43;;;;;;;14.91;93.82;101287.47;5111517;28;20028;-45
2023/08/06 10:01:04;;;;;;;30.48;8.32;;;;;;;14.83;94.45;101299.38;5112723;28;20028;-45
2023/08/06 10:03:32;;;;;;;20.05;6.85;;;;;;;14.93;93.85;101299.66;5111039;28;20032;-44
2023/08/06 10:05:58;;;;;;;24.58;7.80;;;;;;;14.95;93.59;101300.28;5112752;28;20027;-47
2023/08/06 10:08:25;;;;;;;25.80;7.28;;;;;;;15.00;93.71;101300.44;5112104;28;20484;-44
2023/08/06 10:10:51;;;;;;;21.92;8.00;;;;;;;15.00;93.46;101286.97;5112360;28;20028;-44
2023/08/06 10:13:20;;;;;;;28.77;8.80;;;;;;;14.88;94.58;101277.97;5112066;28;20028;-45
2023/08/06 10:15:46;;;;;;;24.13;7.57;;;;;;;14.87;94.86;101280.88;5112293;28;20050;-46
2023/08/06 10:18:17;;;;;;;25.30;8.25;;;;;;;14.83;94.92;101288.59;5112352;28;20034;-47
2023/08/06 10:20:44;;;;;;;21.75;7.38;;;;;;;14.87;94.62;101289.78;5112130;28;20026;-48
2023/08/06 10:23:10;;;;;;;31.55;8.27;;;;;;;14.94;93.51;101292.44;5111806;28;20028;-49
2023/08/06 10:25:42;;;;;;;22.08;8.18;;;;;;;14.99;93.14;101287.16;5112262;28;20028;-50
2023/08/06 10:28:15;;;;;;;27.63;7.80;;;;;;;14.86;93.71;101293.53;5112401;28;20019;-50
2023/08/06 10:30:48;;;;;;;24.48;7.82;;;;;;;14.98;93.09;101280.97;5112205;28;20391;-49
2023/08/06 10:33:16;;;;;;;25.17;7.65;;;;;;;14.80;94.03;101283.66;5111633;28;20026;-47
2023/08/06 10:35:50;;;;;;;33.63;9.63;;;;;;;14.61;94.64;101279.28;5111304;28;20023;-48
2023/08/06 10:38:21;;;;;;;29.33;8.40;;;;;;;14.73;94.04;101282.91;5111836;28;20106;-49
2023/08/06 10:40:53;;;;;;;22.55;7.00;;;;;;;14.78;93.59;101281.19;5111474;28;20059;-48
2023/08/06 10:43:39;;;;;;;26.95;7.63;;;;;;;14.84;93.25;101284.03;5111720;28;20024;-49
2023/08/06 10:46:23;;;;;;;30.58;8.27;;;;;;;14.87;92.50;101295.19;5112004;28;20447;-46
2023/08/06 10:48:49;;;;;;;26.90;8.40;;;;;;;14.86;92.48;101298.09;5102484;28;20047;-46
2023/08/06 10:51:16;;;;;;;30.75;8.10;;;;;;;14.64;93.86;101289.59;5112034;28;20019;-45
2023/08/06 10:53:46;;;;;;;28.40;8.23;;;;;;;14.64;94.05;101289.59;5111479;28;20790;-46
2023/08/06 10:56:23;;;;;;;28.80;7.78;;;;;;;14.65;93.92;101292.06;5103303;28;20031;-47
2023/08/06 10:58:52;;;;;;;36.75;9.60;;;;;;;14.49;94.81;101293.50;5111942;28;20047;-49
2023/08/06 11:01:18;;;;;;;25.15;8.70;;;;;;;14.50;95.01;101287.06;5112026;28;20087;-46
2023/08/06 11:03:47;;;;;;;26.67;8.25;;;;;;;14.46;95.65;101284.97;5111498;28;20020;-46
2023/08/06 11:06:23;;;;;;;21.70;8.18;;;;;;;14.50;95.37;101284.34;5111716;28;20028;-48
2023/08/06 11:08:51;;;;;;;25.25;7.45;;;;;;;14.58;95.34;101279.72;5111523;28;20061;-49
2023/08/06 11:11:18;;;;;;;27.85;8.35;;;;;;;14.54;95.39;101279.34;5111873;28;20035;-45
2023/08/06 11:13:48;;;;;;;31.90;8.65;;;;;;;14.57;95.03;101268.13;5104155;28;20024;-46
2023/08/06 11:16:18;;;;;;;29.30;8.65;;;;;;;14.72;94.47;101270.47;5111559;28;20040;-46
2023/08/06 11:18:44;;;;;;;33.47;9.50;;;;;;;14.36;96.02;101280.09;5111967;28;20051;-47
2023/08/06 11:21:14;;;;;;;27.45;7.95;;;;;;;14.31;96.45;101279.09;5111810;28;20495;-47